Philadelphia International Airport
KPHL : now visible

Airfield :











YOU CAN JOIN US ON...

 
LOGIN :

Register | Disclaimer

   EN    FR    IT 

 









Legend :    VFR   Marginal VFR   IFR   Intensive IFR   Very Intensive IFR
Visi :
Ceiling :
>= 8 km
>= 3000ft
5 to 8 km
1000 to 3000 ft
1500m to 5 km
500 to 1000 ft
800 to 1500m
200 to 500 ft
< 800m
< 200 ft
Symbols :   Thunderstorms  Fog  Heavy snow  Heavy precipitations  Wind > 20 kt






- Airport Elevation : 36 ft
- IATA code : PHL


KPHL - Philadelphia International

CURRENT METAR :
  • 170654Z 08023G28KT 2SM RA BR SCT012 OVC020 10/08 A2917 RMK AO2 PK WND 08033/0621 PRESFR SLP878 P0036 T01000083 $

EXPIRED METARs :
  • 170638Z 11022G33KT 2SM +RA BR FEW010 SCT015 OVC020 10/08 A2925 RMK AO2 PK WND 08033/0621 P0025 T01000083 $
  • 170605Z 08021G29KT 1 1/4SM RA BR OVC013 09/07 A2926 RMK AO2 PK WND 07029/0603 PRESFR P0005 T00890072 $
  • 170554Z 07018G27KT 2SM RA BR BKN010 OVC015 09/07 A2928 RMK AO2 PK WND 07031/0501 PRESFR SLP916 P0022 60077 I6005 T00890067 10089 21017 58123 $
  • 170545Z 07019G29KT 2SM -RA BR BKN010 OVC015 09/07 A2930 RMK AO2 PK WND 07031/0501 P0018 T00890067 $
  • 170454Z 06016G27KT 4SM -RA BR OVC011 08/06 A2941 RMK AO2 PK WND 08027/0446 PRESFR SLP959 P0018 T00780056 400781111 $
  • 170421Z 07013G22KT 4SM -RA BR OVC010 07/05 A2949 RMK AO2 PRESFR P0007 T00670050 $

TAF KPHL
Valid from the 17 at 06:00 until the 18 at 12:00 UTC


170539Z 1706/1812 07015G25KT 3SM RA BR BKN005 OVC012 WS020/10055KT
TEMPO 1706/1708 2SM +RA BR SCT009 OVC020
FM170800 16012G20KT 5SM -RA BR BKN015
FM171100 20012KT P6SM VCSH SCT008 OVC015
FM171500 23015G25KT P6SM VCSH OVC020
FM171900 26018G36KT P6SM VCSH BKN025
FM180200 28019G34KT P6SM BKN040
FM180600 28015KT P6SM SCT040
KZDC FIR / North America



MET'MAP, your aeronautical weather chart ! - Copyright ORBIFLY December 2007 - Disclaimer

ORBIFLY MET'MAP TEAM :

Programming & Development : Alexandra Zaïnal
Concept & original design : Baudouin d'Aumeries
Assistance for programming : Marc-Olivier Méhu
Technical & hardware support : Manuel Goepfert

Contact : metmap@orbifly.com




SOURCES & CREDITS :

   NOAA       Earth
Advisory